sensor_id;sensor_type;location;lat;lon;timestamp;P1;durP1;ratioP1;P2;durP2;ratioP2
79052;SDS011;68451;49.510;6.026;2023-04-29T00:01:28;2.60;;;2.10;;
79052;SDS011;68451;49.510;6.026;2023-04-29T00:03:54;3.90;;;2.10;;
79052;SDS011;68451;49.510;6.026;2023-04-29T00:06:20;3.33;;;2.27;;
79052;SDS011;68451;49.510;6.026;2023-04-29T00:08:46;3.23;;;2.40;;
79052;SDS011;68451;49.510;6.026;2023-04-29T00:11:12;4.67;;;3.00;;
79052;SDS011;68451;49.510;6.026;2023-04-29T00:13:37;3.70;;;2.47;;
79052;SDS011;68451;49.510;6.026;2023-04-29T00:16:06;2.90;;;2.60;;
79052;SDS011;68451;49.510;6.026;2023-04-29T00:18:34;3.97;;;2.63;;
79052;SDS011;68451;49.510;6.026;2023-04-29T00:21:01;4.27;;;2.40;;
79052;SDS011;68451;49.510;6.026;2023-04-29T00:23:30;5.20;;;2.70;;
79052;SDS011;68451;49.510;6.026;2023-04-29T00:25:57;3.40;;;2.37;;
79052;SDS011;68451;49.510;6.026;2023-04-29T00:28:22;3.47;;;2.47;;
79052;SDS011;68451;49.510;6.026;2023-04-29T00:30:47;3.30;;;2.23;;
79052;SDS011;68451;49.510;6.026;2023-04-29T00:33:13;3.80;;;2.50;;
79052;SDS011;68451;49.510;6.026;2023-04-29T00:35:38;3.60;;;2.30;;
79052;SDS011;68451;49.510;6.026;2023-04-29T00:38:04;3.67;;;3.13;;
79052;SDS011;68451;49.510;6.026;2023-04-29T00:40:29;5.13;;;3.27;;
79052;SDS011;68451;49.510;6.026;2023-04-29T00:42:55;4.13;;;2.37;;
79052;SDS011;68451;49.510;6.026;2023-04-29T00:45:21;2.70;;;2.17;;
79052;SDS011;68451;49.510;6.026;2023-04-29T00:47:47;4.33;;;3.37;;
79052;SDS011;68451;49.510;6.026;2023-04-29T00:50:15;3.53;;;2.67;;
79052;SDS011;68451;49.510;6.026;2023-04-29T00:52:40;4.77;;;2.90;;
79052;SDS011;68451;49.510;6.026;2023-04-29T00:55:07;4.03;;;2.60;;
79052;SDS011;68451;49.510;6.026;2023-04-29T00:57:33;4.40;;;3.13;;
79052;SDS011;68451;49.510;6.026;2023-04-29T00:59:58;4.73;;;3.17;;
79052;SDS011;68451;49.510;6.026;2023-04-29T01:02:24;3.97;;;3.00;;
79052;SDS011;68451;49.510;6.026;2023-04-29T01:04:50;5.50;;;3.03;;
79052;SDS011;68451;49.510;6.026;2023-04-29T01:07:17;3.63;;;3.30;;
79052;SDS011;68451;49.510;6.026;2023-04-29T01:09:51;4.17;;;3.00;;
79052;SDS011;68451;49.510;6.026;2023-04-29T01:12:37;4.63;;;3.30;;
79052;SDS011;68451;49.510;6.026;2023-04-29T01:17:55;4.18;;;2.60;;
79052;SDS011;68451;49.510;6.026;2023-04-29T01:20:25;5.23;;;3.90;;
79052;SDS011;68451;49.510;6.026;2023-04-29T01:22:52;5.67;;;4.13;;
79052;SDS011;68451;49.510;6.026;2023-04-29T01:25:17;8.73;;;5.27;;
79052;SDS011;68451;49.510;6.026;2023-04-29T01:27:51;10.10;;;3.80;;
79052;SDS011;68451;49.510;6.026;2023-04-29T01:33:18;4.10;;;3.70;;
79052;SDS011;68451;49.510;6.026;2023-04-29T01:35:59;8.60;;;4.37;;
79052;SDS011;68451;49.510;6.026;2023-04-29T01:38:35;7.97;;;4.40;;
79052;SDS011;68451;49.510;6.026;2023-04-29T01:41:17;5.20;;;3.50;;
79052;SDS011;68451;49.510;6.026;2023-04-29T01:43:49;5.97;;;4.30;;
79052;SDS011;68451;49.510;6.026;2023-04-29T01:46:16;5.53;;;4.50;;
79052;SDS011;68451;49.510;6.026;2023-04-29T01:48:43;4.10;;;3.43;;
79052;SDS011;68451;49.510;6.026;2023-04-29T01:51:08;5.63;;;3.93;;
79052;SDS011;68451;49.510;6.026;2023-04-29T01:53:35;6.23;;;4.23;;
79052;SDS011;68451;49.510;6.026;2023-04-29T01:56:01;5.60;;;3.90;;
79052;SDS011;68451;49.510;6.026;2023-04-29T01:58:26;5.53;;;4.20;;
79052;SDS011;68451;49.510;6.026;2023-04-29T02:00:52;6.00;;;3.83;;
79052;SDS011;68451;49.510;6.026;2023-04-29T02:03:19;10.37;;;5.90;;
79052;SDS011;68451;49.510;6.026;2023-04-29T02:05:44;7.03;;;5.27;;
79052;SDS011;68451;49.510;6.026;2023-04-29T02:08:09;7.93;;;5.23;;
79052;SDS011;68451;49.510;6.026;2023-04-29T02:10:35;7.30;;;5.23;;
79052;SDS011;68451;49.510;6.026;2023-04-29T02:13:00;7.73;;;5.27;;
79052;SDS011;68451;49.510;6.026;2023-04-29T02:15:26;8.00;;;5.07;;
79052;SDS011;68451;49.510;6.026;2023-04-29T02:17:52;7.30;;;5.30;;
79052;SDS011;68451;49.510;6.026;2023-04-29T02:20:18;7.90;;;5.23;;
79052;SDS011;68451;49.510;6.026;2023-04-29T02:22:44;7.40;;;5.70;;
79052;SDS011;68451;49.510;6.026;2023-04-29T02:25:10;8.23;;;5.27;;
79052;SDS011;68451;49.510;6.026;2023-04-29T02:27:36;7.30;;;5.40;;
79052;SDS011;68451;49.510;6.026;2023-04-29T02:30:01;8.50;;;5.40;;
79052;SDS011;68451;49.510;6.026;2023-04-29T02:32:29;6.90;;;5.67;;
79052;SDS011;68451;49.510;6.026;2023-04-29T02:34:55;7.93;;;5.10;;
79052;SDS011;68451;49.510;6.026;2023-04-29T02:37:20;9.03;;;5.20;;
79052;SDS011;68451;49.510;6.026;2023-04-29T02:39:46;8.00;;;6.03;;
79052;SDS011;68451;49.510;6.026;2023-04-29T02:42:12;8.93;;;6.20;;
79052;SDS011;68451;49.510;6.026;2023-04-29T02:44:38;7.17;;;6.07;;
79052;SDS011;68451;49.510;6.026;2023-04-29T02:47:03;12.03;;;6.53;;
79052;SDS011;68451;49.510;6.026;2023-04-29T02:49:29;9.37;;;5.77;;
79052;SDS011;68451;49.510;6.026;2023-04-29T02:51:55;8.67;;;6.03;;
79052;SDS011;68451;49.510;6.026;2023-04-29T02:54:20;8.77;;;6.57;;
79052;SDS011;68451;49.510;6.026;2023-04-29T02:56:46;9.67;;;5.97;;
79052;SDS011;68451;49.510;6.026;2023-04-29T02:59:12;8.23;;;7.07;;
79052;SDS011;68451;49.510;6.026;2023-04-29T03:01:37;8.17;;;5.70;;
79052;SDS011;68451;49.510;6.026;2023-04-29T03:04:03;10.80;;;6.00;;
79052;SDS011;68451;49.510;6.026;2023-04-29T03:06:29;10.00;;;7.43;;
79052;SDS011;68451;49.510;6.026;2023-04-29T03:08:55;7.57;;;5.80;;
79052;SDS011;68451;49.510;6.026;2023-04-29T03:11:21;10.83;;;6.73;;
79052;SDS011;68451;49.510;6.026;2023-04-29T03:13:49;8.20;;;6.17;;
79052;SDS011;68451;49.510;6.026;2023-04-29T03:16:14;8.43;;;6.00;;
79052;SDS011;68451;49.510;6.026;2023-04-29T03:18:41;9.53;;;6.20;;
79052;SDS011;68451;49.510;6.026;2023-04-29T03:21:07;10.37;;;6.20;;
79052;SDS011;68451;49.510;6.026;2023-04-29T03:23:33;10.10;;;7.27;;
79052;SDS011;68451;49.510;6.026;2023-04-29T03:25:58;8.07;;;5.97;;
79052;SDS011;68451;49.510;6.026;2023-04-29T03:28:24;8.27;;;6.23;;
79052;SDS011;68451;49.510;6.026;2023-04-29T03:30:50;9.40;;;6.60;;
79052;SDS011;68451;49.510;6.026;2023-04-29T03:33:15;9.33;;;7.33;;
79052;SDS011;68451;49.510;6.026;2023-04-29T03:35:41;9.37;;;6.77;;
79052;SDS011;68451;49.510;6.026;2023-04-29T03:38:06;8.87;;;6.93;;
79052;SDS011;68451;49.510;6.026;2023-04-29T03:40:32;9.43;;;6.30;;
79052;SDS011;68451;49.510;6.026;2023-04-29T03:42:57;8.40;;;6.43;;
79052;SDS011;68451;49.510;6.026;2023-04-29T03:45:24;8.17;;;5.57;;
79052;SDS011;68451;49.510;6.026;2023-04-29T03:47:50;8.17;;;6.70;;
79052;SDS011;68451;49.510;6.026;2023-04-29T03:50:17;10.30;;;6.53;;
79052;SDS011;68451;49.510;6.026;2023-04-29T03:52:42;10.07;;;6.97;;
79052;SDS011;68451;49.510;6.026;2023-04-29T03:55:08;8.70;;;7.37;;
79052;SDS011;68451;49.510;6.026;2023-04-29T03:57:34;10.80;;;7.90;;
79052;SDS011;68451;49.510;6.026;2023-04-29T03:59:59;11.63;;;8.13;;
79052;SDS011;68451;49.510;6.026;2023-04-29T04:02:25;12.30;;;8.13;;
79052;SDS011;68451;49.510;6.026;2023-04-29T04:04:51;11.00;;;8.87;;
79052;SDS011;68451;49.510;6.026;2023-04-29T04:07:16;9.37;;;7.80;;
79052;SDS011;68451;49.510;6.026;2023-04-29T04:09:42;9.18;;;6.88;;
79052;SDS011;68451;49.510;6.026;2023-04-29T04:12:07;10.60;;;7.57;;
79052;SDS011;68451;49.510;6.026;2023-04-29T04:14:33;9.83;;;7.00;;
79052;SDS011;68451;49.510;6.026;2023-04-29T04:16:58;11.33;;;7.87;;
79052;SDS011;68451;49.510;6.026;2023-04-29T04:19:24;11.33;;;7.93;;
79052;SDS011;68451;49.510;6.026;2023-04-29T04:21:51;17.23;;;9.17;;
79052;SDS011;68451;49.510;6.026;2023-04-29T04:24:16;14.07;;;8.40;;
79052;SDS011;68451;49.510;6.026;2023-04-29T04:26:42;11.77;;;7.97;;
79052;SDS011;68451;49.510;6.026;2023-04-29T04:29:07;11.20;;;7.03;;
79052;SDS011;68451;49.510;6.026;2023-04-29T04:31:33;11.47;;;8.20;;
79052;SDS011;68451;49.510;6.026;2023-04-29T04:33:58;12.50;;;9.00;;
79052;SDS011;68451;49.510;6.026;2023-04-29T04:36:24;11.40;;;8.23;;
79052;SDS011;68451;49.510;6.026;2023-04-29T04:38:49;12.50;;;7.87;;
79052;SDS011;68451;49.510;6.026;2023-04-29T04:41:15;14.93;;;8.50;;
79052;SDS011;68451;49.510;6.026;2023-04-29T04:43:40;12.37;;;8.10;;
79052;SDS011;68451;49.510;6.026;2023-04-29T04:46:13;13.57;;;8.67;;
79052;SDS011;68451;49.510;6.026;2023-04-29T04:48:39;15.37;;;8.90;;
79052;SDS011;68451;49.510;6.026;2023-04-29T04:51:09;11.57;;;7.97;;
79052;SDS011;68451;49.510;6.026;2023-04-29T04:53:35;14.00;;;9.13;;
79052;SDS011;68451;49.510;6.026;2023-04-29T04:56:01;13.37;;;7.90;;
79052;SDS011;68451;49.510;6.026;2023-04-29T04:58:27;13.93;;;9.40;;
79052;SDS011;68451;49.510;6.026;2023-04-29T05:00:52;11.80;;;7.27;;
79052;SDS011;68451;49.510;6.026;2023-04-29T05:03:18;11.53;;;9.73;;
79052;SDS011;68451;49.510;6.026;2023-04-29T05:05:43;15.33;;;10.10;;
79052;SDS011;68451;49.510;6.026;2023-04-29T05:08:09;12.90;;;9.57;;
79052;SDS011;68451;49.510;6.026;2023-04-29T05:10:35;13.67;;;9.10;;
79052;SDS011;68451;49.510;6.026;2023-04-29T05:13:01;14.80;;;9.60;;
79052;SDS011;68451;49.510;6.026;2023-04-29T05:15:26;14.17;;;9.60;;
79052;SDS011;68451;49.510;6.026;2023-04-29T05:17:52;15.13;;;8.77;;
79052;SDS011;68451;49.510;6.026;2023-04-29T05:20:17;15.23;;;10.53;;
79052;SDS011;68451;49.510;6.026;2023-04-29T05:22:44;14.80;;;9.77;;
79052;SDS011;68451;49.510;6.026;2023-04-29T05:25:10;14.13;;;9.67;;
79052;SDS011;68451;49.510;6.026;2023-04-29T05:27:35;16.57;;;10.47;;
79052;SDS011;68451;49.510;6.026;2023-04-29T05:30:01;14.80;;;10.77;;
79052;SDS011;68451;49.510;6.026;2023-04-29T05:32:26;17.50;;;10.17;;
79052;SDS011;68451;49.510;6.026;2023-04-29T05:34:52;15.53;;;10.40;;
79052;SDS011;68451;49.510;6.026;2023-04-29T05:37:17;13.73;;;9.53;;
79052;SDS011;68451;49.510;6.026;2023-04-29T05:39:43;20.37;;;11.00;;
79052;SDS011;68451;49.510;6.026;2023-04-29T05:42:09;15.87;;;10.53;;
79052;SDS011;68451;49.510;6.026;2023-04-29T05:44:34;15.90;;;9.83;;
79052;SDS011;68451;49.510;6.026;2023-04-29T05:47:00;16.70;;;11.93;;
79052;SDS011;68451;49.510;6.026;2023-04-29T05:49:25;22.63;;;12.40;;
79052;SDS011;68451;49.510;6.026;2023-04-29T05:51:51;16.80;;;10.57;;
79052;SDS011;68451;49.510;6.026;2023-04-29T05:54:16;17.10;;;11.70;;
79052;SDS011;68451;49.510;6.026;2023-04-29T05:56:42;16.23;;;10.80;;
79052;SDS011;68451;49.510;6.026;2023-04-29T05:59:07;17.17;;;10.25;;
79052;SDS011;68451;49.510;6.026;2023-04-29T06:01:33;19.13;;;11.60;;
79052;SDS011;68451;49.510;6.026;2023-04-29T06:03:58;17.20;;;11.13;;
79052;SDS011;68451;49.510;6.026;2023-04-29T06:06:24;18.33;;;11.93;;
79052;SDS011;68451;49.510;6.026;2023-04-29T06:08:50;16.00;;;10.60;;
79052;SDS011;68451;49.510;6.026;2023-04-29T06:11:15;16.03;;;10.30;;
79052;SDS011;68451;49.510;6.026;2023-04-29T06:13:41;13.23;;;9.93;;
79052;SDS011;68451;49.510;6.026;2023-04-29T06:16:06;15.70;;;10.30;;
79052;SDS011;68451;49.510;6.026;2023-04-29T06:18:32;18.43;;;10.03;;
79052;SDS011;68451;49.510;6.026;2023-04-29T06:20:58;16.70;;;9.97;;
79052;SDS011;68451;49.510;6.026;2023-04-29T06:23:23;18.23;;;10.90;;
79052;SDS011;68451;49.510;6.026;2023-04-29T06:25:49;17.95;;;11.77;;
79052;SDS011;68451;49.510;6.026;2023-04-29T06:28:15;17.00;;;9.33;;
79052;SDS011;68451;49.510;6.026;2023-04-29T06:30:41;16.80;;;11.27;;
79052;SDS011;68451;49.510;6.026;2023-04-29T06:33:07;14.40;;;10.10;;
79052;SDS011;68451;49.510;6.026;2023-04-29T06:35:33;18.30;;;10.65;;
79052;SDS011;68451;49.510;6.026;2023-04-29T06:37:58;17.23;;;10.23;;
79052;SDS011;68451;49.510;6.026;2023-04-29T06:40:24;16.50;;;10.52;;
79052;SDS011;68451;49.510;6.026;2023-04-29T06:42:49;16.03;;;10.73;;
79052;SDS011;68451;49.510;6.026;2023-04-29T06:45:16;16.65;;;9.98;;
79052;SDS011;68451;49.510;6.026;2023-04-29T06:47:42;18.45;;;10.68;;
79052;SDS011;68451;49.510;6.026;2023-04-29T06:50:08;22.13;;;12.35;;
79052;SDS011;68451;49.510;6.026;2023-04-29T06:52:34;12.63;;;10.03;;
79052;SDS011;68451;49.510;6.026;2023-04-29T06:54:59;17.23;;;11.05;;
79052;SDS011;68451;49.510;6.026;2023-04-29T06:57:25;20.63;;;11.13;;
79052;SDS011;68451;49.510;6.026;2023-04-29T06:59:51;19.75;;;12.98;;
79052;SDS011;68451;49.510;6.026;2023-04-29T07:02:16;18.85;;;12.27;;
79052;SDS011;68451;49.510;6.026;2023-04-29T07:04:42;19.73;;;11.80;;
79052;SDS011;68451;49.510;6.026;2023-04-29T07:07:07;19.90;;;12.38;;
79052;SDS011;68451;49.510;6.026;2023-04-29T07:09:33;16.70;;;11.00;;
79052;SDS011;68451;49.510;6.026;2023-04-29T07:11:58;17.55;;;10.15;;
79052;SDS011;68451;49.510;6.026;2023-04-29T07:14:24;21.23;;;12.43;;
79052;SDS011;68451;49.510;6.026;2023-04-29T07:16:53;16.60;;;10.65;;
79052;SDS011;68451;49.510;6.026;2023-04-29T07:19:19;17.70;;;10.77;;
79052;SDS011;68451;49.510;6.026;2023-04-29T07:21:44;17.30;;;11.40;;
79052;SDS011;68451;49.510;6.026;2023-04-29T07:24:10;18.70;;;11.33;;
79052;SDS011;68451;49.510;6.026;2023-04-29T07:26:35;16.97;;;11.63;;
79052;SDS011;68451;49.510;6.026;2023-04-29T07:29:01;21.00;;;11.60;;
79052;SDS011;68451;49.510;6.026;2023-04-29T07:31:27;17.53;;;9.33;;
79052;SDS011;68451;49.510;6.026;2023-04-29T07:33:53;19.90;;;10.20;;
79052;SDS011;68451;49.510;6.026;2023-04-29T07:36:19;17.97;;;10.20;;
79052;SDS011;68451;49.510;6.026;2023-04-29T07:38:45;15.27;;;9.90;;
79052;SDS011;68451;49.510;6.026;2023-04-29T07:41:10;16.00;;;9.63;;
79052;SDS011;68451;49.510;6.026;2023-04-29T07:43:36;14.67;;;9.60;;
79052;SDS011;68451;49.510;6.026;2023-04-29T07:46:02;14.82;;;9.18;;
79052;SDS011;68451;49.510;6.026;2023-04-29T07:48:27;15.07;;;8.90;;
79052;SDS011;68451;49.510;6.026;2023-04-29T07:50:53;18.00;;;8.93;;
79052;SDS011;68451;49.510;6.026;2023-04-29T07:53:18;15.33;;;9.77;;
79052;SDS011;68451;49.510;6.026;2023-04-29T07:55:44;11.73;;;7.82;;
79052;SDS011;68451;49.510;6.026;2023-04-29T07:58:09;15.30;;;9.63;;
79052;SDS011;68451;49.510;6.026;2023-04-29T08:00:35;16.87;;;8.73;;
79052;SDS011;68451;49.510;6.026;2023-04-29T08:03:00;14.53;;;8.87;;
79052;SDS011;68451;49.510;6.026;2023-04-29T08:05:26;16.55;;;9.25;;
79052;SDS011;68451;49.510;6.026;2023-04-29T08:07:52;13.70;;;8.20;;
79052;SDS011;68451;49.510;6.026;2023-04-29T08:10:18;16.03;;;9.17;;
79052;SDS011;68451;49.510;6.026;2023-04-29T08:12:47;14.50;;;9.13;;
79052;SDS011;68451;49.510;6.026;2023-04-29T08:15:13;13.37;;;9.13;;
79052;SDS011;68451;49.510;6.026;2023-04-29T08:17:38;13.93;;;7.00;;
79052;SDS011;68451;49.510;6.026;2023-04-29T08:20:04;14.57;;;8.70;;
79052;SDS011;68451;49.510;6.026;2023-04-29T08:22:32;13.00;;;8.50;;
79052;SDS011;68451;49.510;6.026;2023-04-29T08:24:57;14.70;;;8.70;;
79052;SDS011;68451;49.510;6.026;2023-04-29T08:27:23;14.32;;;9.15;;
79052;SDS011;68451;49.510;6.026;2023-04-29T08:29:49;14.70;;;9.07;;
79052;SDS011;68451;49.510;6.026;2023-04-29T08:32:15;13.63;;;8.83;;
79052;SDS011;68451;49.510;6.026;2023-04-29T08:34:41;15.88;;;9.18;;
79052;SDS011;68451;49.510;6.026;2023-04-29T08:37:08;13.70;;;8.18;;
79052;SDS011;68451;49.510;6.026;2023-04-29T08:39:34;15.13;;;9.55;;
79052;SDS011;68451;49.510;6.026;2023-04-29T08:42:02;14.38;;;8.43;;
79052;SDS011;68451;49.510;6.026;2023-04-29T08:46:58;16.07;;;8.90;;
79052;SDS011;68451;49.510;6.026;2023-04-29T08:49:26;12.65;;;8.30;;
79052;SDS011;68451;49.510;6.026;2023-04-29T08:51:57;17.00;;;9.52;;
79052;SDS011;68451;49.510;6.026;2023-04-29T08:54:23;13.40;;;9.50;;
79052;SDS011;68451;49.510;6.026;2023-04-29T08:56:49;15.52;;;8.80;;
79052;SDS011;68451;49.510;6.026;2023-04-29T08:59:16;15.50;;;9.75;;
79052;SDS011;68451;49.510;6.026;2023-04-29T09:01:42;13.47;;;8.53;;
79052;SDS011;68451;49.510;6.026;2023-04-29T09:04:22;13.52;;;9.05;;
79052;SDS011;68451;49.510;6.026;2023-04-29T09:07:08;14.90;;;9.32;;
79052;SDS011;68451;49.510;6.026;2023-04-29T09:09:35;15.65;;;9.88;;
79052;SDS011;68451;49.510;6.026;2023-04-29T09:12:01;18.30;;;10.90;;
79052;SDS011;68451;49.510;6.026;2023-04-29T09:14:27;15.60;;;9.65;;
79052;SDS011;68451;49.510;6.026;2023-04-29T09:16:57;13.85;;;8.93;;
79052;SDS011;68451;49.510;6.026;2023-04-29T09:19:30;16.90;;;9.00;;
79052;SDS011;68451;49.510;6.026;2023-04-29T09:21:58;15.60;;;9.98;;
79052;SDS011;68451;49.510;6.026;2023-04-29T09:24:24;15.23;;;9.57;;
79052;SDS011;68451;49.510;6.026;2023-04-29T09:26:51;17.27;;;9.63;;
79052;SDS011;68451;49.510;6.026;2023-04-29T09:29:17;18.23;;;9.57;;
79052;SDS011;68451;49.510;6.026;2023-04-29T09:31:43;15.27;;;9.65;;
79052;SDS011;68451;49.510;6.026;2023-04-29T09:34:10;18.47;;;9.87;;
79052;SDS011;68451;49.510;6.026;2023-04-29T09:36:43;16.67;;;10.32;;
79052;SDS011;68451;49.510;6.026;2023-04-29T09:39:12;17.73;;;9.80;;
79052;SDS011;68451;49.510;6.026;2023-04-29T09:41:58;15.70;;;10.32;;
79052;SDS011;68451;49.510;6.026;2023-04-29T09:44:30;14.45;;;10.02;;
79052;SDS011;68451;49.510;6.026;2023-04-29T09:47:04;14.83;;;9.53;;
79052;SDS011;68451;49.510;6.026;2023-04-29T09:49:31;16.57;;;9.37;;
79052;SDS011;68451;49.510;6.026;2023-04-29T09:52:01;15.13;;;8.60;;
79052;SDS011;68451;49.510;6.026;2023-04-29T09:54:31;14.47;;;9.30;;
79052;SDS011;68451;49.510;6.026;2023-04-29T09:56:58;15.97;;;8.90;;
79052;SDS011;68451;49.510;6.026;2023-04-29T09:59:26;10.65;;;7.75;;
79052;SDS011;68451;49.510;6.026;2023-04-29T10:01:53;13.48;;;7.82;;
79052;SDS011;68451;49.510;6.026;2023-04-29T10:04:21;12.30;;;8.25;;
79052;SDS011;68451;49.510;6.026;2023-04-29T10:06:48;12.43;;;7.40;;
79052;SDS011;68451;49.510;6.026;2023-04-29T10:09:15;10.40;;;6.88;;
79052;SDS011;68451;49.510;6.026;2023-04-29T10:11:47;13.05;;;7.68;;
79052;SDS011;68451;49.510;6.026;2023-04-29T10:14:15;14.00;;;7.40;;
79052;SDS011;68451;49.510;6.026;2023-04-29T10:16:44;12.02;;;7.70;;
79052;SDS011;68451;49.510;6.026;2023-04-29T10:19:14;11.65;;;7.32;;
79052;SDS011;68451;49.510;6.026;2023-04-29T10:21:43;12.23;;;6.95;;
79052;SDS011;68451;49.510;6.026;2023-04-29T10:24:09;12.38;;;7.68;;
79052;SDS011;68451;49.510;6.026;2023-04-29T10:26:37;11.57;;;7.00;;
79052;SDS011;68451;49.510;6.026;2023-04-29T10:29:03;15.18;;;7.30;;
79052;SDS011;68451;49.510;6.026;2023-04-29T10:31:30;11.27;;;6.80;;
79052;SDS011;68451;49.510;6.026;2023-04-29T10:33:56;11.85;;;6.72;;
79052;SDS011;68451;49.510;6.026;2023-04-29T10:36:23;10.98;;;6.70;;
79052;SDS011;68451;49.510;6.026;2023-04-29T10:38:50;12.98;;;7.22;;
79052;SDS011;68451;49.510;6.026;2023-04-29T10:41:20;11.43;;;6.85;;
79052;SDS011;68451;49.510;6.026;2023-04-29T10:43:52;11.85;;;7.22;;
79052;SDS011;68451;49.510;6.026;2023-04-29T10:46:20;13.02;;;7.32;;
79052;SDS011;68451;49.510;6.026;2023-04-29T10:48:48;12.05;;;7.32;;
79052;SDS011;68451;49.510;6.026;2023-04-29T10:51:29;10.23;;;6.85;;
79052;SDS011;68451;49.510;6.026;2023-04-29T10:54:05;11.48;;;6.38;;
79052;SDS011;68451;49.510;6.026;2023-04-29T10:56:39;12.00;;;7.78;;
79052;SDS011;68451;49.510;6.026;2023-04-29T10:59:43;12.02;;;7.82;;
79052;SDS011;68451;49.510;6.026;2023-04-29T11:02:12;9.45;;;6.03;;
79052;SDS011;68451;49.510;6.026;2023-04-29T11:05:05;9.77;;;6.03;;
79052;SDS011;68451;49.510;6.026;2023-04-29T11:07:32;13.40;;;6.80;;
79052;SDS011;68451;49.510;6.026;2023-04-29T11:09:58;9.65;;;6.13;;
79052;SDS011;68451;49.510;6.026;2023-04-29T11:12:26;9.93;;;6.72;;
79052;SDS011;68451;49.510;6.026;2023-04-29T11:14:52;10.85;;;6.70;;
79052;SDS011;68451;49.510;6.026;2023-04-29T11:17:25;10.73;;;7.68;;
79052;SDS011;68451;49.510;6.026;2023-04-29T11:19:58;8.73;;;6.93;;
79052;SDS011;68451;49.510;6.026;2023-04-29T11:22:25;12.57;;;6.85;;
79052;SDS011;68451;49.510;6.026;2023-04-29T11:24:53;12.02;;;7.57;;
79052;SDS011;68451;49.510;6.026;2023-04-29T11:27:31;10.52;;;7.05;;
79052;SDS011;68451;49.510;6.026;2023-04-29T11:29:58;11.50;;;6.82;;
79052;SDS011;68451;49.510;6.026;2023-04-29T11:32:28;14.82;;;8.38;;
79052;SDS011;68451;49.510;6.026;2023-04-29T11:34:54;12.43;;;8.02;;
79052;SDS011;68451;49.510;6.026;2023-04-29T11:37:31;9.93;;;7.07;;
79052;SDS011;68451;49.510;6.026;2023-04-29T11:39:58;12.75;;;8.27;;
79052;SDS011;68451;49.510;6.026;2023-04-29T11:42:25;10.57;;;6.57;;
79052;SDS011;68451;49.510;6.026;2023-04-29T11:44:51;11.15;;;7.25;;
79052;SDS011;68451;49.510;6.026;2023-04-29T11:47:18;12.30;;;7.28;;
79052;SDS011;68451;49.510;6.026;2023-04-29T11:49:46;11.00;;;6.97;;
79052;SDS011;68451;49.510;6.026;2023-04-29T11:52:13;12.23;;;7.90;;
79052;SDS011;68451;49.510;6.026;2023-04-29T11:54:40;11.45;;;7.32;;
79052;SDS011;68451;49.510;6.026;2023-04-29T11:57:06;9.88;;;6.65;;
79052;SDS011;68451;49.510;6.026;2023-04-29T11:59:35;10.50;;;6.75;;
79052;SDS011;68451;49.510;6.026;2023-04-29T12:02:00;13.45;;;7.47;;
79052;SDS011;68451;49.510;6.026;2023-04-29T12:04:26;11.63;;;7.30;;
79052;SDS011;68451;49.510;6.026;2023-04-29T12:06:52;10.00;;;7.97;;
79052;SDS011;68451;49.510;6.026;2023-04-29T12:09:17;9.52;;;6.45;;
79052;SDS011;68451;49.510;6.026;2023-04-29T12:11:43;10.23;;;6.38;;
79052;SDS011;68451;49.510;6.026;2023-04-29T12:14:11;12.02;;;6.43;;
79052;SDS011;68451;49.510;6.026;2023-04-29T12:16:38;11.98;;;7.82;;
79052;SDS011;68451;49.510;6.026;2023-04-29T12:19:04;10.30;;;7.20;;
79052;SDS011;68451;49.510;6.026;2023-04-29T12:21:30;10.90;;;7.18;;
79052;SDS011;68451;49.510;6.026;2023-04-29T12:23:57;7.15;;;6.15;;
79052;SDS011;68451;49.510;6.026;2023-04-29T12:26:26;8.10;;;5.85;;
79052;SDS011;68451;49.510;6.026;2023-04-29T12:28:52;10.73;;;6.80;;
79052;SDS011;68451;49.510;6.026;2023-04-29T12:31:19;12.73;;;7.38;;
79052;SDS011;68451;49.510;6.026;2023-04-29T12:33:45;9.15;;;6.05;;
79052;SDS011;68451;49.510;6.026;2023-04-29T12:38:42;8.60;;;6.25;;
79052;SDS011;68451;49.510;6.026;2023-04-29T12:41:08;9.25;;;6.13;;
79052;SDS011;68451;49.510;6.026;2023-04-29T12:43:34;11.18;;;6.72;;
79052;SDS011;68451;49.510;6.026;2023-04-29T12:46:01;8.77;;;6.60;;
79052;SDS011;68451;49.510;6.026;2023-04-29T12:48:32;8.90;;;6.05;;
79052;SDS011;68451;49.510;6.026;2023-04-29T12:50:59;10.07;;;6.47;;
79052;SDS011;68451;49.510;6.026;2023-04-29T12:53:25;8.25;;;5.97;;
79052;SDS011;68451;49.510;6.026;2023-04-29T12:55:51;9.55;;;6.47;;
79052;SDS011;68451;49.510;6.026;2023-04-29T12:58:17;7.53;;;5.47;;
79052;SDS011;68451;49.510;6.026;2023-04-29T13:00:43;9.98;;;7.05;;
79052;SDS011;68451;49.510;6.026;2023-04-29T13:03:09;10.68;;;6.80;;
79052;SDS011;68451;49.510;6.026;2023-04-29T13:05:35;11.05;;;6.13;;
79052;SDS011;68451;49.510;6.026;2023-04-29T13:08:01;9.50;;;6.93;;
79052;SDS011;68451;49.510;6.026;2023-04-29T13:10:27;8.45;;;5.93;;
79052;SDS011;68451;49.510;6.026;2023-04-29T13:12:53;11.02;;;6.50;;
79052;SDS011;68451;49.510;6.026;2023-04-29T13:15:19;11.80;;;6.05;;
79052;SDS011;68451;49.510;6.026;2023-04-29T13:17:45;10.38;;;6.38;;
79052;SDS011;68451;49.510;6.026;2023-04-29T13:20:11;9.80;;;6.47;;
79052;SDS011;68451;49.510;6.026;2023-04-29T13:22:37;8.68;;;5.93;;
79052;SDS011;68451;49.510;6.026;2023-04-29T13:25:03;7.82;;;5.72;;
79052;SDS011;68451;49.510;6.026;2023-04-29T13:27:29;7.68;;;5.07;;
79052;SDS011;68451;49.510;6.026;2023-04-29T13:29:55;9.10;;;5.80;;
79052;SDS011;68451;49.510;6.026;2023-04-29T13:32:21;7.35;;;5.40;;
79052;SDS011;68451;49.510;6.026;2023-04-29T13:34:48;9.05;;;6.05;;
79052;SDS011;68451;49.510;6.026;2023-04-29T13:37:14;10.60;;;5.53;;
79052;SDS011;68451;49.510;6.026;2023-04-29T13:39:41;9.55;;;6.82;;
79052;SDS011;68451;49.510;6.026;2023-04-29T13:42:06;9.95;;;6.50;;
79052;SDS011;68451;49.510;6.026;2023-04-29T13:44:32;10.30;;;7.78;;
79052;SDS011;68451;49.510;6.026;2023-04-29T13:46:58;7.55;;;5.68;;
79052;SDS011;68451;49.510;6.026;2023-04-29T13:49:24;8.93;;;7.03;;
79052;SDS011;68451;49.510;6.026;2023-04-29T13:51:51;8.27;;;6.40;;
79052;SDS011;68451;49.510;6.026;2023-04-29T13:54:17;8.10;;;6.03;;
79052;SDS011;68451;49.510;6.026;2023-04-29T13:56:45;8.02;;;5.88;;
79052;SDS011;68451;49.510;6.026;2023-04-29T13:59:11;8.23;;;6.47;;
79052;SDS011;68451;49.510;6.026;2023-04-29T14:01:37;6.75;;;5.75;;
79052;SDS011;68451;49.510;6.026;2023-04-29T14:04:03;6.97;;;5.20;;
79052;SDS011;68451;49.510;6.026;2023-04-29T14:06:29;7.18;;;5.53;;
79052;SDS011;68451;49.510;6.026;2023-04-29T14:09:21;7.68;;;5.68;;
79052;SDS011;68451;49.510;6.026;2023-04-29T14:11:47;7.75;;;5.57;;
79052;SDS011;68451;49.510;6.026;2023-04-29T14:14:13;9.00;;;5.97;;
79052;SDS011;68451;49.510;6.026;2023-04-29T14:16:39;6.70;;;4.90;;
79052;SDS011;68451;49.510;6.026;2023-04-29T14:19:05;7.15;;;5.35;;
79052;SDS011;68451;49.510;6.026;2023-04-29T14:21:31;7.85;;;5.75;;
79052;SDS011;68451;49.510;6.026;2023-04-29T14:23:58;5.65;;;4.97;;
79052;SDS011;68451;49.510;6.026;2023-04-29T14:26:24;6.78;;;4.53;;
79052;SDS011;68451;49.510;6.026;2023-04-29T14:28:51;6.50;;;5.60;;
79052;SDS011;68451;49.510;6.026;2023-04-29T14:31:22;5.50;;;4.25;;
79052;SDS011;68451;49.510;6.026;2023-04-29T14:33:52;6.35;;;4.72;;
79052;SDS011;68451;49.510;6.026;2023-04-29T14:36:18;6.32;;;4.93;;
79052;SDS011;68451;49.510;6.026;2023-04-29T14:38:43;7.10;;;4.88;;
79052;SDS011;68451;49.510;6.026;2023-04-29T14:41:09;7.15;;;5.03;;
79052;SDS011;68451;49.510;6.026;2023-04-29T14:43:34;5.43;;;4.53;;
79052;SDS011;68451;49.510;6.026;2023-04-29T14:46:00;6.40;;;4.93;;
79052;SDS011;68451;49.510;6.026;2023-04-29T14:48:25;6.63;;;4.78;;